Time;durP1;ratioP1;P1;durP2;ratioP2;P2;SDS_P1;SDS_P2;PMS_P1;PMS_P2;Temp;Humidity;BMP_temperature;BMP_pressure;BME280_temperature;BME280_humidity;BME280_pressure;Samples;Min_cycle;Max_cycle;Signal;HPM_P1;HPM_P2
2021/01/31 06:01:31;;;;;;;0.00;0.00;;;;;;;;;;5081822;28;20365;-47
2021/01/31 06:04:16;;;;;;;1.20;0.57;;;;;;;;;;5068138;28;20115;-47
2021/01/31 06:06:43;;;;;;;0.00;0.00;;;;;;;;;;5067643;28;20035;-47
2021/01/31 06:09:27;;;;;;;0.40;0.40;;;;;;;;;;5064093;28;20024;-48
2021/01/31 06:12:03;;;;;;;0.08;0.08;;;;;;;;;;5064096;28;20111;-47
2021/01/31 06:14:31;;;;;;;0.30;0.30;;;;;;;;;;5064083;28;20031;-47
2021/01/31 06:17:02;;;;;;;0.00;0.00;;;;;;;;;;5063882;28;20029;-47
2021/01/31 06:19:30;;;;;;;0.00;0.00;;;;;;;;;;5064329;28;20083;-53
2021/01/31 06:21:57;;;;;;;0.00;0.00;;;;;;;;;;5066805;28;20494;-49
2021/01/31 06:24:23;;;;;;;0.00;0.00;;;;;;;;;;5063311;28;20532;-47
2021/01/31 06:26:49;;;;;;;1.42;1.33;;;;;;;;;;5063394;28;20024;-47
2021/01/31 06:29:25;;;;;;;0.00;0.00;;;;;;;;;;5064210;28;20098;-47
2021/01/31 06:32:00;;;;;;;0.00;0.00;;;;;;;;;;5063375;28;20569;-47
2021/01/31 06:34:26;;;;;;;;;;;;;;;;;;5064044;28;20037;-47
2021/01/31 06:37:11;;;;;;;0.00;0.00;;;;;;;;;;5066115;28;19911;-48
2021/01/31 06:40:02;;;;;;;0.00;0.00;;;;;;;;;;5065976;28;20025;-47
2021/01/31 06:42:46;;;;;;;0.00;0.00;;;;;;;;;;5062840;28;20527;-47
2021/01/31 06:45:18;;;;;;;0.00;0.00;;;;;;;;;;5062726;28;20452;-47
2021/01/31 06:48:03;;;;;;;0.00;0.00;;;;;;;;;;5062624;28;20052;-47
2021/01/31 06:50:29;;;;;;;0.00;0.00;;;;;;;;;;5062394;28;20024;-47
2021/01/31 06:52:55;;;;;;;0.00;0.00;;;;;;;;;;5062692;28;20092;-48
2021/01/31 06:55:24;;;;;;;0.00;0.00;;;;;;;;;;5064664;28;20039;-47
2021/01/31 06:58:08;;;;;;;0.00;0.00;;;;;;;;;;5064985;28;20028;-51
2021/01/31 07:00:41;;;;;;;0.00;0.00;;;;;;;;;;5060934;28;20053;-47
2021/01/31 07:03:15;;;;;;;0.00;0.00;;;;;;;;;;5049008;28;20029;-48
2021/01/31 07:06:01;;;;;;;0.00;0.00;;;;;;;;;;5052277;28;20029;-48
2021/01/31 07:08:27;;;;;;;;;;;;;;;;;;5052928;28;20025;-47
2021/01/31 07:11:06;;;;;;;0.35;0.35;;;;;;;;;;5052514;28;19982;-47
2021/01/31 07:13:53;;;;;;;0.70;0.70;;;;;;;;;;5036340;28;20053;-48
2021/01/31 07:16:19;;;;;;;0.00;0.00;;;;;;;;;;5029423;28;20033;-47
2021/01/31 07:19:04;;;;;;;0.73;0.73;;;;;;;;;;5032068;28;20145;-51
2021/01/31 07:21:34;;;;;;;0.00;0.00;;;;;;;;;;5033286;28;20045;-47
2021/01/31 07:24:02;;;;;;;0.00;0.00;;;;;;;;;;5031430;28;20116;-48
2021/01/31 07:26:33;;;;;;;0.00;0.00;;;;;;;;;;5031044;28;20036;-49
2021/01/31 07:29:01;;;;;;;0.65;0.47;;;;;;;;;;5031050;28;20542;-53
2021/01/31 07:31:43;;;;;;;0.10;0.10;;;;;;;;;;5031799;28;20449;-50
2021/01/31 07:34:14;;;;;;;0.00;0.00;;;;;;;;;;5030055;28;20128;-54
2021/01/31 07:36:43;;;;;;;5.60;1.52;;;;;;;;;;5032268;28;20033;-47
2021/01/31 07:39:15;;;;;;;0.00;0.00;;;;;;;;;;5032369;28;20033;-47
2021/01/31 07:41:54;;;;;;;0.43;0.35;;;;;;;;;;5032255;28;20040;-50
2021/01/31 07:44:24;;;;;;;1.42;0.65;;;;;;;;;;5032215;28;20407;-47
2021/01/31 07:46:50;;;;;;;0.00;0.00;;;;;;;;;;5032626;28;20037;-47
2021/01/31 07:49:16;;;;;;;0.00;0.00;;;;;;;;;;5030027;28;20049;-47
2021/01/31 07:51:42;;;;;;;0.43;0.43;;;;;;;;;;5030272;28;20025;-47
2021/01/31 07:54:44;;;;;;;0.03;0.03;;;;;;;;;;5046678;28;20041;-50
2021/01/31 07:57:28;;;;;;;0.00;0.00;;;;;;;;;;5045354;28;20536;-48
2021/01/31 07:59:54;;;;;;;0.65;0.65;;;;;;;;;;5046959;28;20253;-48
2021/01/31 08:02:37;;;;;;;0.00;0.00;;;;;;;;;;5045302;28;20036;-55
2021/01/31 08:05:04;;;;;;;0.20;0.10;;;;;;;;;;5048409;28;20041;-48
2021/01/31 08:07:48;;;;;;;0.30;0.30;;;;;;;;;;5048754;28;20032;-48
2021/01/31 08:10:34;;;;;;;0.05;0.05;;;;;;;;;;5045264;28;20145;-54
2021/01/31 08:13:01;;;;;;;0.00;0.00;;;;;;;;;;5045654;28;20037;-51
2021/01/31 08:15:38;;;;;;;0.90;0.25;;;;;;;;;;5048489;28;20032;-48
2021/01/31 08:18:04;;;;;;;0.30;0.30;;;;;;;;;;5048128;28;20060;-48
2021/01/31 08:20:30;;;;;;;0.05;0.05;;;;;;;;;;5035891;28;20021;-48
2021/01/31 08:22:57;;;;;;;0.00;0.00;;;;;;;;;;5048118;28;20123;-52
2021/01/31 08:25:25;;;;;;;0.00;0.00;;;;;;;;;;5049312;28;20044;-47
2021/01/31 08:28:03;;;;;;;0.00;0.00;;;;;;;;;;5049203;28;20041;-47
2021/01/31 08:30:29;;;;;;;0.00;0.00;;;;;;;;;;5048031;28;20529;-49
2021/01/31 08:32:58;;;;;;;0.00;0.00;;;;;;;;;;5050368;28;20025;-51
2021/01/31 08:35:36;;;;;;;1.23;1.15;;;;;;;;;;5051167;28;20032;-50
2021/01/31 08:38:24;;;;;;;3.60;1.00;;;;;;;;;;5051336;28;20021;-50
2021/01/31 08:40:59;;;;;;;0.00;0.00;;;;;;;;;;5048525;28;20550;-46
2021/01/31 08:43:34;;;;;;;0.00;0.00;;;;;;;;;;5050646;28;20413;-47
2021/01/31 08:46:17;;;;;;;0.00;0.00;;;;;;;;;;5051022;28;20021;-48
2021/01/31 08:48:54;;;;;;;0.00;0.00;;;;;;;;;;5049237;28;20405;-48
2021/01/31 08:51:22;;;;;;;0.17;0.17;;;;;;;;;;5050589;28;20548;-51
2021/01/31 08:54:08;;;;;;;0.00;0.00;;;;;;;;;;5050317;28;20020;-50
2021/01/31 08:56:39;;;;;;;0.00;0.00;;;;;;;;;;5048428;28;20025;-52
2021/01/31 08:59:06;;;;;;;0.00;0.00;;;;;;;;;;5048653;28;20091;-49
2021/01/31 09:02:00;;;;;;;0.10;0.10;;;;;;;;;;5034547;28;20102;-50
2021/01/31 09:04:27;;;;;;;0.38;0.38;;;;;;;;;;5049329;28;20040;-49
2021/01/31 09:06:54;;;;;;;0.00;0.00;;;;;;;;;;5051606;28;20044;-49
2021/01/31 09:09:23;;;;;;;0.00;0.00;;;;;;;;;;5050108;28;20086;-47
2021/01/31 09:11:53;;;;;;;0.00;0.00;;;;;;;;;;5050606;28;20036;-48
2021/01/31 09:14:20;;;;;;;0.00;0.00;;;;;;;;;;5049894;28;20140;-47
2021/01/31 09:16:46;;;;;;;0.00;0.00;;;;;;;;;;5049979;28;20108;-47
2021/01/31 09:19:19;;;;;;;0.00;0.00;;;;;;;;;;5050096;28;20075;-46
2021/01/31 09:21:45;;;;;;;0.93;0.93;;;;;;;;;;5048571;28;20056;-47
2021/01/31 09:24:13;;;;;;;0.40;0.40;;;;;;;;;;5049623;28;20025;-47
2021/01/31 09:26:40;;;;;;;0.00;0.00;;;;;;;;;;5049888;28;20083;-47
2021/01/31 09:29:11;;;;;;;13.63;6.22;;;;;;;;;;5049925;28;20029;-53
2021/01/31 09:31:38;;;;;;;1.17;0.20;;;;;;;;;;5041869;28;20029;-52
2021/01/31 09:34:04;;;;;;;1.10;1.02;;;;;;;;;;5051234;28;20426;-49
2021/01/31 09:36:32;;;;;;;0.60;0.52;;;;;;;;;;5050422;28;20120;-47
2021/01/31 09:38:58;;;;;;;0.63;0.63;;;;;;;;;;5049951;28;20021;-46
2021/01/31 09:41:26;;;;;;;0.68;0.68;;;;;;;;;;5048258;28;20029;-48
2021/01/31 09:43:54;;;;;;;2.58;2.38;;;;;;;;;;5049529;28;20497;-53
2021/01/31 09:46:23;;;;;;;11.00;1.95;;;;;;;;;;5050015;28;20029;-49
2021/01/31 09:48:50;;;;;;;0.00;0.00;;;;;;;;;;5050682;28;20028;-50
2021/01/31 09:51:24;;;;;;;0.00;0.00;;;;;;;;;;5049733;28;20037;-47
2021/01/31 09:53:51;;;;;;;0.52;0.52;;;;;;;;;;5048759;28;20107;-47
2021/01/31 09:56:35;;;;;;;0.00;0.00;;;;;;;;;;5049240;28;20482;-49
2021/01/31 09:59:01;;;;;;;0.43;0.43;;;;;;;;;;5045171;28;20025;-51
2021/01/31 10:01:29;;;;;;;0.10;0.10;;;;;;;;;;5047018;28;20049;-50
2021/01/31 10:04:06;;;;;;;0.00;0.00;;;;;;;;;;5046838;28;20486;-47
2021/01/31 10:06:46;;;;;;;2.13;1.30;;;;;;;;;;5046151;28;20035;-47
2021/01/31 10:09:12;;;;;;;2.85;1.08;;;;;;;;;;5048595;28;20061;-47
2021/01/31 10:11:38;;;;;;;0.63;0.52;;;;;;;;;;5047790;28;20025;-57
2021/01/31 10:14:06;;;;;;;0.50;0.50;;;;;;;;;;5047972;28;20036;-47
2021/01/31 10:16:34;;;;;;;0.10;0.10;;;;;;;;;;5031692;28;20025;-47
2021/01/31 10:19:14;;;;;;;0.22;0.20;;;;;;;;;;5050111;28;20494;-48
2021/01/31 10:21:41;;;;;;;3.95;1.85;;;;;;;;;;5048162;28;20502;-47
2021/01/31 10:24:25;;;;;;;0.15;0.15;;;;;;;;;;5049312;28;20025;-47
2021/01/31 10:27:04;;;;;;;0.10;0.10;;;;;;;;;;5049668;28;20086;-49
2021/01/31 10:29:31;;;;;;;1.42;1.35;;;;;;;;;;5049865;28;20029;-48
2021/01/31 10:32:17;;;;;;;3.85;0.95;;;;;;;;;;5049499;28;20025;-47
2021/01/31 10:34:43;;;;;;;1.77;1.65;;;;;;;;;;5049409;28;20474;-53
2021/01/31 10:37:16;;;;;;;0.00;0.00;;;;;;;;;;5051668;28;20032;-51
2021/01/31 10:39:43;;;;;;;2.90;0.80;;;;;;;;;;5053297;28;20036;-47
2021/01/31 10:42:11;;;;;;;3.50;1.45;;;;;;;;;;5053008;28;20107;-47
2021/01/31 10:44:37;;;;;;;0.73;0.73;;;;;;;;;;5050982;28;20024;-54
2021/01/31 10:47:03;;;;;;;4.82;2.53;;;;;;;;;;5050701;28;20089;-49
2021/01/31 10:49:29;;;;;;;2.95;2.75;;;;;;;;;;5051642;28;20036;-56
2021/01/31 10:51:55;;;;;;;0.98;0.98;;;;;;;;;;5051432;28;20513;-46
2021/01/31 10:54:22;;;;;;;1.35;0.90;;;;;;;;;;5050939;28;20116;-54
2021/01/31 10:56:48;;;;;;;0.13;0.13;;;;;;;;;;5053688;28;20040;-48
2021/01/31 10:59:15;;;;;;;0.10;0.10;;;;;;;;;;5058514;28;20024;-51
2021/01/31 11:01:47;;;;;;;6.82;2.22;;;;;;;;;;5060273;28;20036;-49
2021/01/31 11:04:14;;;;;;;4.65;2.50;;;;;;;;;;5060898;28;20021;-47
2021/01/31 11:06:40;;;;;;;0.60;0.38;;;;;;;;;;5051294;28;20033;-47
2021/01/31 11:09:08;;;;;;;4.18;1.77;;;;;;;;;;5052797;28;20021;-55
2021/01/31 11:11:34;;;;;;;1.00;0.90;;;;;;;;;;5052297;28;20462;-55
2021/01/31 11:14:00;;;;;;;1.90;0.52;;;;;;;;;;5048241;28;20076;-47
2021/01/31 11:16:26;;;;;;;4.72;2.78;;;;;;;;;;5048308;28;20017;-47
2021/01/31 11:18:53;;;;;;;0.50;0.15;;;;;;;;;;5046361;28;20021;-50
2021/01/31 11:21:21;;;;;;;1.40;0.65;;;;;;;;;;5047203;28;20036;-51
2021/01/31 11:23:47;;;;;;;2.13;1.98;;;;;;;;;;5047672;28;20028;-48
2021/01/31 11:26:13;;;;;;;0.90;0.90;;;;;;;;;;5048508;28;20199;-48
2021/01/31 11:28:39;;;;;;;0.10;0.10;;;;;;;;;;5049458;28;20071;-47
2021/01/31 11:31:05;;;;;;;0.55;0.47;;;;;;;;;;5050677;28;20045;-47
2021/01/31 11:33:31;;;;;;;0.20;0.20;;;;;;;;;;5037548;28;20026;-48
2021/01/31 11:35:57;;;;;;;0.88;0.88;;;;;;;;;;5051350;28;20137;-49
2021/01/31 11:38:24;;;;;;;2.47;1.77;;;;;;;;;;5055520;28;20122;-49
2021/01/31 11:40:50;;;;;;;0.00;0.00;;;;;;;;;;5055111;28;20101;-49
2021/01/31 11:43:16;;;;;;;3.85;1.02;;;;;;;;;;5053666;28;20063;-49
2021/01/31 11:45:42;;;;;;;0.30;0.30;;;;;;;;;;5040317;28;20053;-49
2021/01/31 11:48:08;;;;;;;5.82;1.35;;;;;;;;;;5052220;28;20079;-47
2021/01/31 11:50:34;;;;;;;1.45;0.68;;;;;;;;;;5049933;28;20539;-47
2021/01/31 11:53:00;;;;;;;11.60;2.80;;;;;;;;;;5039860;28;20025;-48
2021/01/31 11:55:26;;;;;;;7.28;1.65;;;;;;;;;;5051668;28;20017;-47
2021/01/31 11:57:53;;;;;;;0.10;0.10;;;;;;;;;;5052768;28;20561;-47
2021/01/31 12:00:19;;;;;;;0.63;0.63;;;;;;;;;;5052070;28;20136;-47
2021/01/31 12:02:45;;;;;;;4.90;1.98;;;;;;;;;;5051702;28;20021;-49
2021/01/31 12:05:13;;;;;;;0.52;0.40;;;;;;;;;;5050526;28;20047;-48
2021/01/31 12:07:39;;;;;;;0.55;0.40;;;;;;;;;;5052313;28;20032;-47
2021/01/31 12:10:07;;;;;;;1.65;0.38;;;;;;;;;;5048056;28;20033;-47
2021/01/31 12:12:33;;;;;;;0.00;0.00;;;;;;;;;;5044897;28;20382;-47
2021/01/31 12:14:59;;;;;;;0.73;0.70;;;;;;;;;;5040096;28;20106;-58
2021/01/31 12:17:25;;;;;;;0.68;0.32;;;;;;;;;;5045493;28;20029;-51
2021/01/31 12:19:51;;;;;;;0.43;0.43;;;;;;;;;;5046456;28;20116;-50
2021/01/31 12:22:17;;;;;;;6.45;3.13;;;;;;;;;;5049576;28;20074;-47
2021/01/31 12:24:44;;;;;;;1.23;0.88;;;;;;;;;;5047799;28;20124;-47
2021/01/31 12:27:11;;;;;;;0.10;0.10;;;;;;;;;;5048317;28;20375;-50
2021/01/31 12:29:37;;;;;;;0.90;0.43;;;;;;;;;;5048148;28;20033;-51
2021/01/31 12:32:03;;;;;;;0.10;0.10;;;;;;;;;;5040711;28;20078;-55
2021/01/31 12:34:29;;;;;;;0.55;0.55;;;;;;;;;;5044973;28;20040;-53
2021/01/31 12:36:55;;;;;;;2.10;1.58;;;;;;;;;;5049885;28;20024;-49
2021/01/31 12:39:21;;;;;;;0.00;0.00;;;;;;;;;;5047995;28;20402;-50
2021/01/31 12:41:47;;;;;;;0.65;0.40;;;;;;;;;;5043824;28;20490;-47
2021/01/31 12:44:14;;;;;;;0.75;0.20;;;;;;;;;;5045606;28;20121;-50
2021/01/31 12:46:40;;;;;;;0.95;0.73;;;;;;;;;;5047056;28;20498;-50
2021/01/31 12:49:06;;;;;;;0.73;0.20;;;;;;;;;;5046734;28;20104;-51
2021/01/31 12:51:32;;;;;;;0.90;0.85;;;;;;;;;;5048717;28;20063;-48
2021/01/31 12:53:59;;;;;;;1.80;0.20;;;;;;;;;;5047608;28;20140;-47
2021/01/31 12:56:25;;;;;;;0.00;0.00;;;;;;;;;;5044121;28;20096;-47
2021/01/31 12:58:51;;;;;;;0.10;0.10;;;;;;;;;;5046357;28;20479;-47
2021/01/31 13:01:17;;;;;;;0.35;0.30;;;;;;;;;;5048042;28;20516;-47
2021/01/31 13:03:43;;;;;;;0.00;0.00;;;;;;;;;;5047408;28;20033;-48
2021/01/31 13:06:09;;;;;;;0.00;0.00;;;;;;;;;;5049231;28;20021;-48
2021/01/31 13:08:36;;;;;;;0.35;0.10;;;;;;;;;;5048845;28;20086;-47
2021/01/31 13:11:02;;;;;;;0.38;0.22;;;;;;;;;;5049061;28;20044;-47
2021/01/31 13:13:28;;;;;;;0.73;0.40;;;;;;;;;;5049320;28;20487;-48
2021/01/31 13:15:54;;;;;;;0.20;0.20;;;;;;;;;;5050527;28;20548;-46
2021/01/31 13:18:20;;;;;;;0.00;0.00;;;;;;;;;;5044333;28;20021;-58
2021/01/31 13:20:46;;;;;;;0.00;0.00;;;;;;;;;;5040870;28;20029;-55
2021/01/31 13:23:13;;;;;;;0.10;0.10;;;;;;;;;;5039505;28;20029;-50
2021/01/31 13:25:39;;;;;;;0.00;0.00;;;;;;;;;;5036464;28;20549;-49
2021/01/31 13:28:05;;;;;;;1.00;0.10;;;;;;;;;;5045072;28;20025;-47
2021/01/31 13:30:31;;;;;;;0.00;0.00;;;;;;;;;;5046589;28;20371;-52
2021/01/31 13:32:58;;;;;;;0.00;0.00;;;;;;;;;;5039299;28;20040;-46
2021/01/31 13:35:25;;;;;;;0.00;0.00;;;;;;;;;;5053059;28;20413;-47
2021/01/31 13:37:51;;;;;;;0.20;0.20;;;;;;;;;;5046595;28;20025;-48
2021/01/31 13:40:18;;;;;;;0.00;0.00;;;;;;;;;;5047605;28;20418;-55
2021/01/31 13:42:44;;;;;;;0.00;0.00;;;;;;;;;;5047683;28;20071;-49
2021/01/31 13:45:12;;;;;;;0.00;0.00;;;;;;;;;;5045582;28;20565;-48
2021/01/31 13:47:39;;;;;;;0.00;0.00;;;;;;;;;;5045801;28;20040;-49
2021/01/31 13:50:05;;;;;;;0.10;0.10;;;;;;;;;;5045977;28;20029;-49
2021/01/31 13:52:31;;;;;;;0.00;0.00;;;;;;;;;;5049047;28;20810;-48
2021/01/31 13:54:57;;;;;;;0.28;0.00;;;;;;;;;;5047639;28;20028;-51
2021/01/31 13:57:24;;;;;;;0.65;0.20;;;;;;;;;;5045132;28;20028;-52
2021/01/31 13:59:51;;;;;;;0.10;0.10;;;;;;;;;;5045764;28;20056;-50
2021/01/31 14:02:17;;;;;;;0.00;0.00;;;;;;;;;;5043029;28;20021;-47
2021/01/31 14:04:43;;;;;;;0.40;0.20;;;;;;;;;;5042584;28;20564;-50
2021/01/31 14:07:10;;;;;;;0.08;0.08;;;;;;;;;;5042202;28;20445;-49
2021/01/31 14:09:36;;;;;;;0.35;0.05;;;;;;;;;;5041957;28;20037;-48
2021/01/31 14:12:02;;;;;;;0.35;0.20;;;;;;;;;;5043805;28;20021;-52
2021/01/31 14:14:28;;;;;;;0.00;0.00;;;;;;;;;;5043944;28;20390;-48
2021/01/31 14:16:55;;;;;;;0.00;0.00;;;;;;;;;;5045988;28;20025;-51
2021/01/31 14:19:21;;;;;;;0.13;0.08;;;;;;;;;;5047286;28;20017;-47
2021/01/31 14:21:47;;;;;;;0.73;0.00;;;;;;;;;;5046807;28;20107;-51
2021/01/31 14:24:13;;;;;;;6.82;1.30;;;;;;;;;;5045498;28;20040;-51
2021/01/31 14:26:39;;;;;;;0.30;0.08;;;;;;;;;;5048473;28;20849;-47
2021/01/31 14:29:06;;;;;;;0.00;0.00;;;;;;;;;;5045937;28;20029;-49
2021/01/31 14:31:32;;;;;;;0.10;0.08;;;;;;;;;;5050811;28;20410;-47
2021/01/31 14:33:58;;;;;;;0.00;0.00;;;;;;;;;;5053627;28;20075;-47
2021/01/31 14:36:25;;;;;;;0.65;0.17;;;;;;;;;;5050660;28;20032;-48
2021/01/31 14:38:51;;;;;;;0.32;0.20;;;;;;;;;;5053832;28;20021;-47
2021/01/31 14:41:17;;;;;;;0.32;0.32;;;;;;;;;;5053778;28;20025;-47
2021/01/31 14:43:43;;;;;;;0.20;0.20;;;;;;;;;;5050663;28;20660;-50
2021/01/31 14:46:10;;;;;;;1.13;1.02;;;;;;;;;;5048326;28;20486;-49
2021/01/31 14:48:36;;;;;;;0.00;0.00;;;;;;;;;;5049708;28;20441;-48
2021/01/31 14:51:02;;;;;;;0.00;0.00;;;;;;;;;;5049147;28;20277;-53
2021/01/31 14:53:28;;;;;;;0.00;0.00;;;;;;;;;;5051097;28;20032;-48
2021/01/31 14:55:54;;;;;;;5.85;0.47;;;;;;;;;;5053408;28;20111;-49
2021/01/31 14:58:21;;;;;;;0.00;0.00;;;;;;;;;;5053653;28;20037;-47
2021/01/31 15:00:47;;;;;;;1.65;0.60;;;;;;;;;;5053535;28;20053;-52
2021/01/31 15:03:13;;;;;;;1.60;0.28;;;;;;;;;;5053126;28;20401;-47
2021/01/31 15:05:42;;;;;;;7.03;0.85;;;;;;;;;;5053102;28;20021;-52
2021/01/31 15:08:08;;;;;;;1.35;0.57;;;;;;;;;;5053196;28;20036;-48
2021/01/31 15:10:35;;;;;;;4.72;0.80;;;;;;;;;;5052756;28;20112;-52
2021/01/31 15:13:01;;;;;;;1.45;0.55;;;;;;;;;;5049866;28;20033;-47
2021/01/31 15:15:28;;;;;;;2.25;0.43;;;;;;;;;;5050457;28;20405;-46
2021/01/31 15:17:54;;;;;;;0.00;0.00;;;;;;;;;;5048113;28;20025;-47
2021/01/31 15:20:22;;;;;;;2.58;0.45;;;;;;;;;;5047954;28;20033;-48
2021/01/31 15:22:48;;;;;;;6.00;1.55;;;;;;;;;;5048484;28;20545;-50
2021/01/31 15:25:14;;;;;;;0.00;0.00;;;;;;;;;;5051164;28;20020;-47
2021/01/31 15:27:40;;;;;;;3.47;0.88;;;;;;;;;;5043573;28;20040;-48
2021/01/31 15:30:08;;;;;;;0.00;0.00;;;;;;;;;;5048189;28;20055;-48
2021/01/31 15:32:34;;;;;;;9.52;0.73;;;;;;;;;;5047721;28;20471;-47
2021/01/31 15:35:00;;;;;;;2.15;0.70;;;;;;;;;;5048318;28;20021;-47
2021/01/31 15:37:27;;;;;;;0.47;0.15;;;;;;;;;;5044321;28;20037;-46
2021/01/31 15:39:53;;;;;;;7.63;1.58;;;;;;;;;;5044295;28;20075;-48
2021/01/31 15:42:19;;;;;;;12.27;1.40;;;;;;;;;;5049875;28;20159;-65
2021/01/31 15:44:46;;;;;;;0.05;0.05;;;;;;;;;;5043666;28;20586;-55
2021/01/31 15:47:12;;;;;;;3.30;0.73;;;;;;;;;;5049229;28;20074;-55
2021/01/31 15:49:38;;;;;;;3.03;1.30;;;;;;;;;;5044304;28;20064;-53
2021/01/31 15:52:04;;;;;;;0.00;0.00;;;;;;;;;;5048650;28;20437;-46
2021/01/31 15:54:31;;;;;;;0.05;0.03;;;;;;;;;;5043347;28;20021;-55
2021/01/31 15:56:57;;;;;;;4.40;1.98;;;;;;;;;;5052121;28;20083;-46
2021/01/31 15:59:23;;;;;;;1.20;0.88;;;;;;;;;;5048404;28;20096;-54
2021/01/31 16:01:49;;;;;;;6.97;1.88;;;;;;;;;;5048198;28;20044;-49
2021/01/31 16:04:15;;;;;;;7.15;0.95;;;;;;;;;;5049170;28;20025;-50
2021/01/31 16:06:41;;;;;;;3.65;1.25;;;;;;;;;;5048704;28;20033;-47
2021/01/31 16:09:07;;;;;;;0.13;0.13;;;;;;;;;;5047219;28;20021;-48
2021/01/31 16:11:35;;;;;;;3.45;0.85;;;;;;;;;;5046987;28;20025;-51
2021/01/31 16:14:01;;;;;;;6.10;1.52;;;;;;;;;;5047327;28;20017;-47
2021/01/31 16:16:27;;;;;;;3.10;2.33;;;;;;;;;;5041358;28;20021;-46
2021/01/31 16:18:53;;;;;;;16.13;2.92;;;;;;;;;;5045924;28;20142;-50
2021/01/31 16:21:20;;;;;;;10.32;2.40;;;;;;;;;;5043202;28;20021;-47
2021/01/31 16:23:46;;;;;;;6.65;1.67;;;;;;;;;;5043049;28;20029;-47
2021/01/31 16:26:13;;;;;;;0.93;0.10;;;;;;;;;;5048146;28;20082;-47
2021/01/31 16:28:39;;;;;;;1.83;0.68;;;;;;;;;;5044050;28;20437;-48
2021/01/31 16:31:05;;;;;;;8.20;1.45;;;;;;;;;;5046020;28;20071;-46
2021/01/31 16:33:32;;;;;;;0.20;0.10;;;;;;;;;;5048249;28;20032;-47
2021/01/31 16:35:58;;;;;;;2.40;0.70;;;;;;;;;;5045258;28;20033;-49
2021/01/31 16:38:24;;;;;;;5.75;0.95;;;;;;;;;;5045792;28;20033;-50
2021/01/31 16:40:50;;;;;;;0.17;0.17;;;;;;;;;;5045245;28;20029;-48
2021/01/31 16:43:17;;;;;;;14.25;2.42;;;;;;;;;;5045873;28;20219;-49
2021/01/31 16:45:45;;;;;;;1.35;0.35;;;;;;;;;;5063165;28;20037;-48
2021/01/31 16:48:12;;;;;;;7.75;1.98;;;;;;;;;;5047532;28;20040;-51
2021/01/31 16:50:38;;;;;;;3.08;0.65;;;;;;;;;;5050151;28;20529;-47
2021/01/31 16:53:04;;;;;;;1.95;0.88;;;;;;;;;;5047566;28;20051;-49
2021/01/31 16:55:31;;;;;;;8.60;3.65;;;;;;;;;;5043032;28;20545;-48
2021/01/31 16:57:57;;;;;;;9.95;1.92;;;;;;;;;;5044968;28;20025;-49
2021/01/31 17:00:24;;;;;;;8.52;2.20;;;;;;;;;;5041990;28;20094;-49
2021/01/31 17:02:51;;;;;;;1.48;0.88;;;;;;;;;;5037539;28;20072;-52
2021/01/31 17:05:17;;;;;;;7.82;2.17;;;;;;;;;;5039453;28;20409;-53
2021/01/31 17:07:44;;;;;;;7.38;2.42;;;;;;;;;;5043977;28;20548;-51
2021/01/31 17:10:11;;;;;;;10.40;0.80;;;;;;;;;;5046566;28;20124;-47
2021/01/31 17:12:37;;;;;;;4.63;1.10;;;;;;;;;;5045362;28;20053;-47
2021/01/31 17:15:04;;;;;;;4.97;0.45;;;;;;;;;;5034079;28;20132;-52
2021/01/31 17:17:30;;;;;;;25.30;4.85;;;;;;;;;;5043045;28;20079;-49
2021/01/31 17:19:57;;;;;;;3.85;1.75;;;;;;;;;;5045164;28;20036;-47
2021/01/31 17:22:23;;;;;;;3.95;1.00;;;;;;;;;;5043881;28;20394;-53
2021/01/31 17:24:49;;;;;;;10.60;1.10;;;;;;;;;;5048571;28;20052;-47
2021/01/31 17:27:15;;;;;;;2.03;1.17;;;;;;;;;;5050171;28;20104;-51
2021/01/31 17:29:42;;;;;;;0.68;0.68;;;;;;;;;;5050398;28;20055;-54
2021/01/31 17:32:09;;;;;;;5.65;1.40;;;;;;;;;;5052191;28;20024;-50
2021/01/31 17:34:35;;;;;;;3.85;0.55;;;;;;;;;;5051536;28;20542;-47
2021/01/31 17:37:01;;;;;;;1.20;0.45;;;;;;;;;;5035316;28;20025;-49
2021/01/31 17:39:27;;;;;;;0.00;0.00;;;;;;;;;;5052707;28;20021;-49
2021/01/31 17:41:54;;;;;;;0.25;0.10;;;;;;;;;;5051134;28;20043;-52
2021/01/31 17:44:20;;;;;;;5.95;2.17;;;;;;;;;;5051817;28;20025;-48
2021/01/31 17:46:47;;;;;;;5.63;1.30;;;;;;;;;;5051762;28;20032;-47
2021/01/31 17:49:14;;;;;;;2.63;1.45;;;;;;;;;;5050515;28;20044;-51
2021/01/31 17:51:40;;;;;;;5.32;1.33;;;;;;;;;;5051057;28;20056;-49
2021/01/31 17:54:06;;;;;;;14.20;1.35;;;;;;;;;;5049093;28;20398;-48
2021/01/31 17:56:33;;;;;;;6.05;2.38;;;;;;;;;;5049533;28;20040;-52
2021/01/31 17:58:59;;;;;;;3.67;1.13;;;;;;;;;;5047395;28;20021;-51
2021/01/31 18:01:25;;;;;;;10.65;2.10;;;;;;;;;;5048777;28;20041;-50
2021/01/31 18:03:51;;;;;;;0.00;0.00;;;;;;;;;;5049092;28;20548;-49
2021/01/31 18:06:17;;;;;;;0.77;0.30;;;;;;;;;;5048514;28;20028;-50
2021/01/31 18:08:44;;;;;;;2.55;2.17;;;;;;;;;;5048576;28;20115;-51
2021/01/31 18:11:11;;;;;;;0.17;0.17;;;;;;;;;;5047381;28;20049;-51
2021/01/31 18:13:37;;;;;;;1.73;1.63;;;;;;;;;;5049694;28;20163;-48
2021/01/31 18:16:03;;;;;;;0.00;0.00;;;;;;;;;;5050718;28;20033;-48
2021/01/31 18:18:30;;;;;;;0.20;0.20;;;;;;;;;;5048636;28;20108;-53
2021/01/31 18:20:56;;;;;;;0.00;0.00;;;;;;;;;;5054597;28;20037;-48
2021/01/31 18:23:22;;;;;;;10.05;2.72;;;;;;;;;;5045596;28;20112;-51
2021/01/31 18:25:48;;;;;;;0.15;0.15;;;;;;;;;;5049030;28;20028;-49
2021/01/31 18:28:15;;;;;;;6.72;1.42;;;;;;;;;;5049508;28;20017;-48
2021/01/31 18:30:41;;;;;;;7.32;2.47;;;;;;;;;;5052346;28;20041;-48
2021/01/31 18:33:08;;;;;;;13.25;3.08;;;;;;;;;;5059804;28;20032;-51
2021/01/31 18:35:34;;;;;;;6.05;0.82;;;;;;;;;;5057723;28;20079;-48
2021/01/31 18:38:00;;;;;;;2.83;0.38;;;;;;;;;;5049917;28;20017;-48
2021/01/31 18:40:26;;;;;;;0.38;0.28;;;;;;;;;;5049335;28;20472;-49
2021/01/31 18:42:53;;;;;;;34.00;5.25;;;;;;;;;;5050751;28;20123;-48
2021/01/31 18:45:20;;;;;;;6.60;3.92;;;;;;;;;;5049636;28;20079;-47
2021/01/31 18:47:46;;;;;;;16.35;2.85;;;;;;;;;;5049686;28;20048;-52
2021/01/31 18:50:14;;;;;;;4.28;0.60;;;;;;;;;;5049292;28;20059;-48
2021/01/31 18:52:41;;;;;;;16.00;1.83;;;;;;;;;;5049949;28;20021;-47
2021/01/31 18:55:08;;;;;;;15.70;1.98;;;;;;;;;;5049042;28;20021;-49
2021/01/31 18:57:34;;;;;;;2.85;0.68;;;;;;;;;;5048561;28;20033;-50
2021/01/31 19:00:00;;;;;;;0.10;0.03;;;;;;;;;;5053224;28;20525;-47
2021/01/31 19:02:26;;;;;;;5.55;0.47;;;;;;;;;;5047918;28;20479;-47
2021/01/31 19:04:53;;;;;;;7.25;0.95;;;;;;;;;;5049798;28;20407;-49
2021/01/31 19:07:19;;;;;;;0.00;0.00;;;;;;;;;;5045243;28;20121;-49
2021/01/31 19:09:47;;;;;;;3.35;1.90;;;;;;;;;;5051303;28;20047;-55
2021/01/31 19:12:13;;;;;;;0.20;0.00;;;;;;;;;;5049932;28;20262;-50
2021/01/31 19:14:39;;;;;;;3.10;0.75;;;;;;;;;;5050556;28;20044;-52
2021/01/31 19:17:05;;;;;;;5.45;1.20;;;;;;;;;;5048593;28;20017;-52
2021/01/31 19:19:31;;;;;;;1.58;0.32;;;;;;;;;;5046435;28;20159;-52
2021/01/31 19:21:57;;;;;;;0.00;0.00;;;;;;;;;;5050027;28;20120;-50
2021/01/31 19:24:23;;;;;;;5.38;2.30;;;;;;;;;;5049251;28;20176;-50
2021/01/31 19:26:50;;;;;;;0.32;0.32;;;;;;;;;;5050245;28;20044;-52
2021/01/31 19:29:19;;;;;;;0.00;0.00;;;;;;;;;;5049730;28;20035;-53
2021/01/31 19:31:46;;;;;;;4.75;1.20;;;;;;;;;;5045386;28;20029;-60
2021/01/31 19:34:13;;;;;;;5.47;1.02;;;;;;;;;;5047614;28;20487;-48
2021/01/31 19:36:39;;;;;;;2.72;0.47;;;;;;;;;;5049610;28;20083;-53
2021/01/31 19:39:06;;;;;;;0.00;0.00;;;;;;;;;;5048928;28;20044;-52
2021/01/31 19:41:32;;;;;;;6.47;3.13;;;;;;;;;;5049750;28;20445;-56
2021/01/31 19:43:58;;;;;;;3.40;2.25;;;;;;;;;;5050863;28;20094;-55
2021/01/31 19:46:24;;;;;;;0.30;0.30;;;;;;;;;;5050625;28;20029;-53
2021/01/31 19:48:50;;;;;;;1.35;0.00;;;;;;;;;;5050364;28;20052;-54
2021/01/31 19:51:17;;;;;;;3.15;2.58;;;;;;;;;;5051452;28;20040;-55
2021/01/31 19:53:43;;;;;;;1.15;0.73;;;;;;;;;;5051441;28;20052;-54
2021/01/31 19:56:09;;;;;;;11.30;3.35;;;;;;;;;;5052394;28;20021;-57
2021/01/31 19:58:36;;;;;;;22.23;4.25;;;;;;;;;;5052149;28;20536;-53
2021/01/31 20:01:03;;;;;;;2.83;1.35;;;;;;;;;;5051969;28;20098;-50
2021/01/31 20:03:31;;;;;;;0.93;0.70;;;;;;;;;;5051910;28;20017;-50
2021/01/31 20:05:58;;;;;;;0.00;0.00;;;;;;;;;;5051662;28;20033;-54
2021/01/31 20:08:25;;;;;;;0.75;0.43;;;;;;;;;;5051456;28;20020;-53
2021/01/31 20:10:51;;;;;;;0.75;0.60;;;;;;;;;;5051599;28;20032;-52
2021/01/31 20:13:17;;;;;;;14.70;2.63;;;;;;;;;;5051543;28;20025;-55
2021/01/31 20:15:46;;;;;;;2.72;2.53;;;;;;;;;;5050435;28;20065;-54
2021/01/31 20:18:14;;;;;;;2.47;0.77;;;;;;;;;;5051385;28;20028;-53
2021/01/31 20:20:41;;;;;;;0.85;0.40;;;;;;;;;;5050460;28;20515;-51
2021/01/31 20:23:07;;;;;;;10.57;3.40;;;;;;;;;;5051420;28;20544;-51
2021/01/31 20:25:33;;;;;;;1.27;1.27;;;;;;;;;;5051849;28;20033;-57
2021/01/31 20:28:00;;;;;;;3.45;0.85;;;;;;;;;;5052515;28;20406;-53
2021/01/31 20:30:27;;;;;;;0.45;0.40;;;;;;;;;;5051295;28;20583;-51
2021/01/31 20:32:55;;;;;;;0.00;0.00;;;;;;;;;;5050939;28;20092;-53
2021/01/31 20:35:22;;;;;;;9.75;3.83;;;;;;;;;;5051403;28;20094;-54
2021/01/31 20:37:48;;;;;;;2.03;1.20;;;;;;;;;;5051245;28;20440;-50
2021/01/31 20:40:16;;;;;;;19.23;4.30;;;;;;;;;;5051780;28;20025;-55
2021/01/31 20:42:42;;;;;;;11.10;2.53;;;;;;;;;;5051846;28;20032;-53
2021/01/31 20:45:10;;;;;;;8.82;2.08;;;;;;;;;;5051166;28;20060;-55
2021/01/31 20:47:36;;;;;;;0.00;0.00;;;;;;;;;;5051414;28;20389;-53
2021/01/31 20:50:02;;;;;;;2.38;0.77;;;;;;;;;;5050775;28;20457;-54